sensor_id;sensor_type;location;lat;lon;timestamp;P1;durP1;ratioP1;P2;durP2;ratioP2
60873;SDS011;46715;40.642;-7.920;2023-03-01T00:00:15;22.42;;;13.55;;
60873;SDS011;46715;40.642;-7.920;2023-03-01T00:02:16;22.02;;;14.48;;
60873;SDS011;46715;40.642;-7.920;2023-03-01T00:04:16;23.42;;;15.52;;
60873;SDS011;46715;40.642;-7.920;2023-03-01T00:06:18;23.02;;;14.45;;
60873;SDS011;46715;40.642;-7.920;2023-03-01T00:08:20;21.05;;;13.80;;
60873;SDS011;46715;40.642;-7.920;2023-03-01T00:10:21;21.95;;;13.95;;
60873;SDS011;46715;40.642;-7.920;2023-03-01T00:12:23;23.15;;;13.88;;
60873;SDS011;46715;40.642;-7.920;2023-03-01T00:14:23;21.83;;;13.90;;
60873;SDS011;46715;40.642;-7.920;2023-03-01T00:16:26;22.42;;;13.55;;
60873;SDS011;46715;40.642;-7.920;2023-03-01T00:18:29;19.05;;;12.02;;
60873;SDS011;46715;40.642;-7.920;2023-03-01T00:20:30;21.25;;;12.70;;
60873;SDS011;46715;40.642;-7.920;2023-03-01T00:22:30;21.10;;;13.68;;
60873;SDS011;46715;40.642;-7.920;2023-03-01T00:24:31;21.58;;;14.02;;
60873;SDS011;46715;40.642;-7.920;2023-03-01T00:26:32;21.17;;;13.17;;
60873;SDS011;46715;40.642;-7.920;2023-03-01T00:28:34;20.42;;;13.20;;
60873;SDS011;46715;40.642;-7.920;2023-03-01T00:30:35;18.60;;;13.60;;
60873;SDS011;46715;40.642;-7.920;2023-03-01T00:32:36;19.20;;;12.02;;
60873;SDS011;46715;40.642;-7.920;2023-03-01T00:34:37;13.85;;;9.73;;
60873;SDS011;46715;40.642;-7.920;2023-03-01T00:36:38;13.43;;;9.10;;
60873;SDS011;46715;40.642;-7.920;2023-03-01T00:38:39;13.70;;;9.63;;
60873;SDS011;46715;40.642;-7.920;2023-03-01T00:40:42;15.40;;;9.35;;
60873;SDS011;46715;40.642;-7.920;2023-03-01T00:42:43;14.93;;;9.40;;
60873;SDS011;46715;40.642;-7.920;2023-03-01T00:44:46;12.63;;;8.20;;
60873;SDS011;46715;40.642;-7.920;2023-03-01T00:46:47;11.80;;;7.25;;
60873;SDS011;46715;40.642;-7.920;2023-03-01T00:48:48;12.27;;;8.55;;
60873;SDS011;46715;40.642;-7.920;2023-03-01T00:50:49;11.70;;;7.50;;
60873;SDS011;46715;40.642;-7.920;2023-03-01T00:52:54;11.70;;;7.55;;
60873;SDS011;46715;40.642;-7.920;2023-03-01T00:54:55;11.23;;;7.20;;
60873;SDS011;46715;40.642;-7.920;2023-03-01T00:56:58;10.55;;;7.20;;
60873;SDS011;46715;40.642;-7.920;2023-03-01T00:58:58;8.03;;;5.93;;
60873;SDS011;46715;40.642;-7.920;2023-03-01T01:01:00;8.80;;;6.38;;
60873;SDS011;46715;40.642;-7.920;2023-03-01T01:03:07;9.32;;;5.72;;
60873;SDS011;46715;40.642;-7.920;2023-03-01T01:05:08;9.13;;;5.90;;
60873;SDS011;46715;40.642;-7.920;2023-03-01T01:07:09;10.13;;;6.15;;
60873;SDS011;46715;40.642;-7.920;2023-03-01T01:09:11;8.85;;;6.28;;
60873;SDS011;46715;40.642;-7.920;2023-03-01T01:11:17;7.50;;;5.60;;
60873;SDS011;46715;40.642;-7.920;2023-03-01T01:13:18;9.70;;;6.75;;
60873;SDS011;46715;40.642;-7.920;2023-03-01T01:15:19;11.20;;;7.28;;
60873;SDS011;46715;40.642;-7.920;2023-03-01T01:17:20;8.85;;;6.80;;
60873;SDS011;46715;40.642;-7.920;2023-03-01T01:19:21;10.68;;;5.88;;
60873;SDS011;46715;40.642;-7.920;2023-03-01T01:21:23;7.40;;;4.90;;
60873;SDS011;46715;40.642;-7.920;2023-03-01T01:23:24;8.35;;;5.20;;
60873;SDS011;46715;40.642;-7.920;2023-03-01T01:25:25;5.90;;;4.40;;
60873;SDS011;46715;40.642;-7.920;2023-03-01T01:27:26;6.30;;;4.30;;
60873;SDS011;46715;40.642;-7.920;2023-03-01T01:29:27;8.20;;;4.28;;
60873;SDS011;46715;40.642;-7.920;2023-03-01T01:31:28;16.67;;;9.75;;
60873;SDS011;46715;40.642;-7.920;2023-03-01T01:33:29;21.95;;;12.40;;
60873;SDS011;46715;40.642;-7.920;2023-03-01T01:35:30;19.92;;;12.55;;
60873;SDS011;46715;40.642;-7.920;2023-03-01T01:37:31;17.45;;;11.55;;
60873;SDS011;46715;40.642;-7.920;2023-03-01T01:39:34;20.15;;;11.43;;
60873;SDS011;46715;40.642;-7.920;2023-03-01T01:43:37;11.48;;;6.28;;
60873;SDS011;46715;40.642;-7.920;2023-03-01T01:45:44;13.50;;;6.85;;
60873;SDS011;46715;40.642;-7.920;2023-03-01T01:47:45;10.50;;;6.15;;
60873;SDS011;46715;40.642;-7.920;2023-03-01T01:49:49;7.07;;;4.85;;
60873;SDS011;46715;40.642;-7.920;2023-03-01T01:52:36;7.07;;;4.43;;
60873;SDS011;46715;40.642;-7.920;2023-03-01T01:54:25;6.80;;;4.18;;
60873;SDS011;46715;40.642;-7.920;2023-03-01T01:56:30;5.90;;;3.85;;
60873;SDS011;46715;40.642;-7.920;2023-03-01T01:58:31;6.33;;;3.77;;
60873;SDS011;46715;40.642;-7.920;2023-03-01T02:00:32;6.93;;;4.00;;
60873;SDS011;46715;40.642;-7.920;2023-03-01T02:02:33;6.00;;;3.50;;
60873;SDS011;46715;40.642;-7.920;2023-03-01T02:04:34;6.63;;;3.70;;
60873;SDS011;46715;40.642;-7.920;2023-03-01T02:06:45;5.38;;;3.55;;
60873;SDS011;46715;40.642;-7.920;2023-03-01T02:08:55;6.78;;;3.35;;
60873;SDS011;46715;40.642;-7.920;2023-03-01T02:11:00;6.15;;;3.33;;
60873;SDS011;46715;40.642;-7.920;2023-03-01T02:13:01;5.40;;;3.53;;
60873;SDS011;46715;40.642;-7.920;2023-03-01T02:15:04;4.35;;;3.10;;
60873;SDS011;46715;40.642;-7.920;2023-03-01T02:19:06;6.43;;;3.30;;
60873;SDS011;46715;40.642;-7.920;2023-03-01T02:23:38;6.75;;;3.55;;
60873;SDS011;46715;40.642;-7.920;2023-03-01T02:30:14;4.38;;;3.00;;
60873;SDS011;46715;40.642;-7.920;2023-03-01T02:32:15;4.82;;;3.38;;
60873;SDS011;46715;40.642;-7.920;2023-03-01T02:34:25;7.53;;;3.42;;
60873;SDS011;46715;40.642;-7.920;2023-03-01T02:36:32;4.47;;;2.90;;
60873;SDS011;46715;40.642;-7.920;2023-03-01T02:38:36;5.18;;;3.38;;
60873;SDS011;46715;40.642;-7.920;2023-03-01T02:40:37;4.87;;;3.20;;
60873;SDS011;46715;40.642;-7.920;2023-03-01T02:43:00;6.50;;;3.22;;
60873;SDS011;46715;40.642;-7.920;2023-03-01T02:45:00;5.72;;;3.40;;
60873;SDS011;46715;40.642;-7.920;2023-03-01T02:47:02;9.25;;;3.97;;
60873;SDS011;46715;40.642;-7.920;2023-03-01T02:49:16;6.75;;;3.10;;
60873;SDS011;46715;40.642;-7.920;2023-03-01T02:56:29;4.43;;;2.78;;
60873;SDS011;46715;40.642;-7.920;2023-03-01T02:58:30;4.45;;;2.70;;
60873;SDS011;46715;40.642;-7.920;2023-03-01T03:00:33;3.58;;;2.65;;
60873;SDS011;46715;40.642;-7.920;2023-03-01T03:02:40;5.28;;;2.83;;
60873;SDS011;46715;40.642;-7.920;2023-03-01T03:04:50;5.82;;;3.17;;
60873;SDS011;46715;40.642;-7.920;2023-03-01T03:06:52;4.95;;;3.00;;
60873;SDS011;46715;40.642;-7.920;2023-03-01T03:08:53;4.22;;;3.35;;
60873;SDS011;46715;40.642;-7.920;2023-03-01T03:10:54;4.38;;;2.88;;
60873;SDS011;46715;40.642;-7.920;2023-03-01T03:12:57;4.47;;;3.28;;
60873;SDS011;46715;40.642;-7.920;2023-03-01T03:14:59;5.00;;;2.38;;
60873;SDS011;46715;40.642;-7.920;2023-03-01T03:17:01;3.47;;;2.35;;
60873;SDS011;46715;40.642;-7.920;2023-03-01T03:19:06;6.60;;;2.60;;
60873;SDS011;46715;40.642;-7.920;2023-03-01T03:21:11;3.92;;;2.50;;
60873;SDS011;46715;40.642;-7.920;2023-03-01T03:23:13;4.05;;;2.50;;
60873;SDS011;46715;40.642;-7.920;2023-03-01T03:25:14;6.40;;;2.55;;
60873;SDS011;46715;40.642;-7.920;2023-03-01T03:27:15;4.88;;;3.13;;
60873;SDS011;46715;40.642;-7.920;2023-03-01T03:29:16;3.78;;;2.40;;
60873;SDS011;46715;40.642;-7.920;2023-03-01T03:31:17;3.45;;;2.65;;
60873;SDS011;46715;40.642;-7.920;2023-03-01T03:35:24;6.43;;;2.50;;
60873;SDS011;46715;40.642;-7.920;2023-03-01T03:37:30;8.73;;;2.85;;
60873;SDS011;46715;40.642;-7.920;2023-03-01T03:39:49;6.13;;;2.70;;
60873;SDS011;46715;40.642;-7.920;2023-03-01T03:41:50;6.55;;;2.60;;
60873;SDS011;46715;40.642;-7.920;2023-03-01T03:43:50;6.32;;;2.78;;
60873;SDS011;46715;40.642;-7.920;2023-03-01T03:45:51;7.18;;;2.85;;
60873;SDS011;46715;40.642;-7.920;2023-03-01T03:47:52;4.07;;;2.65;;
60873;SDS011;46715;40.642;-7.920;2023-03-01T03:49:53;7.57;;;2.80;;
60873;SDS011;46715;40.642;-7.920;2023-03-01T03:51:53;4.38;;;2.40;;
60873;SDS011;46715;40.642;-7.920;2023-03-01T03:53:54;7.40;;;2.78;;
60873;SDS011;46715;40.642;-7.920;2023-03-01T03:55:55;5.78;;;2.53;;
60873;SDS011;46715;40.642;-7.920;2023-03-01T03:57:59;5.90;;;2.60;;
60873;SDS011;46715;40.642;-7.920;2023-03-01T04:00:02;4.68;;;3.13;;
60873;SDS011;46715;40.642;-7.920;2023-03-01T04:02:12;3.97;;;2.78;;
60873;SDS011;46715;40.642;-7.920;2023-03-01T04:04:13;5.18;;;3.00;;
60873;SDS011;46715;40.642;-7.920;2023-03-01T04:06:14;4.63;;;2.17;;
60873;SDS011;46715;40.642;-7.920;2023-03-01T04:08:15;2.42;;;2.03;;
60873;SDS011;46715;40.642;-7.920;2023-03-01T04:10:17;4.07;;;2.65;;
60873;SDS011;46715;40.642;-7.920;2023-03-01T04:12:18;4.78;;;2.85;;
60873;SDS011;46715;40.642;-7.920;2023-03-01T04:14:23;5.35;;;2.58;;
60873;SDS011;46715;40.642;-7.920;2023-03-01T04:16:24;3.10;;;2.13;;
60873;SDS011;46715;40.642;-7.920;2023-03-01T04:18:25;6.10;;;2.55;;
60873;SDS011;46715;40.642;-7.920;2023-03-01T04:20:27;5.25;;;2.55;;
60873;SDS011;46715;40.642;-7.920;2023-03-01T04:22:30;5.05;;;3.42;;
60873;SDS011;46715;40.642;-7.920;2023-03-01T04:24:32;8.73;;;2.35;;
60873;SDS011;46715;40.642;-7.920;2023-03-01T04:26:33;6.07;;;3.30;;
60873;SDS011;46715;40.642;-7.920;2023-03-01T04:28:35;4.60;;;3.03;;
60873;SDS011;46715;40.642;-7.920;2023-03-01T04:30:38;4.00;;;2.70;;
60873;SDS011;46715;40.642;-7.920;2023-03-01T04:32:39;4.50;;;2.83;;
60873;SDS011;46715;40.642;-7.920;2023-03-01T04:34:40;4.68;;;2.63;;
60873;SDS011;46715;40.642;-7.920;2023-03-01T04:36:41;5.80;;;3.30;;
60873;SDS011;46715;40.642;-7.920;2023-03-01T04:38:42;5.07;;;2.58;;
60873;SDS011;46715;40.642;-7.920;2023-03-01T04:40:47;4.18;;;2.75;;
60873;SDS011;46715;40.642;-7.920;2023-03-01T04:42:48;5.03;;;2.72;;
60873;SDS011;46715;40.642;-7.920;2023-03-01T04:44:49;6.40;;;2.77;;
60873;SDS011;46715;40.642;-7.920;2023-03-01T04:46:53;4.28;;;2.60;;
60873;SDS011;46715;40.642;-7.920;2023-03-01T04:48:54;5.43;;;2.78;;
60873;SDS011;46715;40.642;-7.920;2023-03-01T04:50:55;5.83;;;2.90;;
60873;SDS011;46715;40.642;-7.920;2023-03-01T04:52:55;7.90;;;2.85;;
60873;SDS011;46715;40.642;-7.920;2023-03-01T04:54:59;5.55;;;2.92;;
60873;SDS011;46715;40.642;-7.920;2023-03-01T04:57:01;3.90;;;2.63;;
60873;SDS011;46715;40.642;-7.920;2023-03-01T04:59:03;3.92;;;2.65;;
60873;SDS011;46715;40.642;-7.920;2023-03-01T05:01:09;6.13;;;2.70;;
60873;SDS011;46715;40.642;-7.920;2023-03-01T05:03:17;5.00;;;3.00;;
60873;SDS011;46715;40.642;-7.920;2023-03-01T05:05:19;13.50;;;3.00;;
60873;SDS011;46715;40.642;-7.920;2023-03-01T05:07:22;5.00;;;2.58;;
60873;SDS011;46715;40.642;-7.920;2023-03-01T05:09:24;4.90;;;2.78;;
60873;SDS011;46715;40.642;-7.920;2023-03-01T05:11:25;5.57;;;2.90;;
60873;SDS011;46715;40.642;-7.920;2023-03-01T05:13:28;5.18;;;3.30;;
60873;SDS011;46715;40.642;-7.920;2023-03-01T05:15:30;6.57;;;3.20;;
60873;SDS011;46715;40.642;-7.920;2023-03-01T05:17:32;5.68;;;2.72;;
60873;SDS011;46715;40.642;-7.920;2023-03-01T05:19:35;5.68;;;3.33;;
60873;SDS011;46715;40.642;-7.920;2023-03-01T05:21:35;5.25;;;3.15;;
60873;SDS011;46715;40.642;-7.920;2023-03-01T05:23:56;5.38;;;3.03;;
60873;SDS011;46715;40.642;-7.920;2023-03-01T05:25:57;5.75;;;2.80;;
60873;SDS011;46715;40.642;-7.920;2023-03-01T05:28:02;5.82;;;3.20;;
60873;SDS011;46715;40.642;-7.920;2023-03-01T05:30:04;5.35;;;3.05;;
60873;SDS011;46715;40.642;-7.920;2023-03-01T05:32:13;6.38;;;3.17;;
60873;SDS011;46715;40.642;-7.920;2023-03-01T05:34:15;6.78;;;3.10;;
60873;SDS011;46715;40.642;-7.920;2023-03-01T05:36:16;5.10;;;3.13;;
60873;SDS011;46715;40.642;-7.920;2023-03-01T05:40:20;5.97;;;3.17;;
60873;SDS011;46715;40.642;-7.920;2023-03-01T05:42:22;5.68;;;3.55;;
60873;SDS011;46715;40.642;-7.920;2023-03-01T05:44:23;7.53;;;3.28;;
60873;SDS011;46715;40.642;-7.920;2023-03-01T05:48:26;6.75;;;3.05;;
60873;SDS011;46715;40.642;-7.920;2023-03-01T05:50:31;4.30;;;3.13;;
60873;SDS011;46715;40.642;-7.920;2023-03-01T05:52:34;5.70;;;3.35;;
60873;SDS011;46715;40.642;-7.920;2023-03-01T05:54:35;8.00;;;3.28;;
60873;SDS011;46715;40.642;-7.920;2023-03-01T05:56:36;6.32;;;3.53;;
60873;SDS011;46715;40.642;-7.920;2023-03-01T05:58:37;8.93;;;3.42;;
60873;SDS011;46715;40.642;-7.920;2023-03-01T06:02:40;4.72;;;2.95;;
60873;SDS011;46715;40.642;-7.920;2023-03-01T06:04:41;5.07;;;2.95;;
60873;SDS011;46715;40.642;-7.920;2023-03-01T06:06:42;5.05;;;3.22;;
60873;SDS011;46715;40.642;-7.920;2023-03-01T06:08:43;8.15;;;3.42;;
60873;SDS011;46715;40.642;-7.920;2023-03-01T06:10:43;5.78;;;3.22;;
60873;SDS011;46715;40.642;-7.920;2023-03-01T06:12:44;3.92;;;3.15;;
60873;SDS011;46715;40.642;-7.920;2023-03-01T06:14:45;5.70;;;3.70;;
60873;SDS011;46715;40.642;-7.920;2023-03-01T06:16:47;6.75;;;3.60;;
60873;SDS011;46715;40.642;-7.920;2023-03-01T06:18:48;5.43;;;3.22;;
60873;SDS011;46715;40.642;-7.920;2023-03-01T06:20:53;4.25;;;3.28;;
60873;SDS011;46715;40.642;-7.920;2023-03-01T06:22:56;5.82;;;3.00;;
60873;SDS011;46715;40.642;-7.920;2023-03-01T06:24:57;6.07;;;3.45;;
60873;SDS011;46715;40.642;-7.920;2023-03-01T06:26:58;7.07;;;3.53;;
60873;SDS011;46715;40.642;-7.920;2023-03-01T06:28:59;10.38;;;3.30;;
60873;SDS011;46715;40.642;-7.920;2023-03-01T06:30:59;3.30;;;2.58;;
60873;SDS011;46715;40.642;-7.920;2023-03-01T06:33:01;5.18;;;4.00;;
60873;SDS011;46715;40.642;-7.920;2023-03-01T06:37:04;3.42;;;2.60;;
60873;SDS011;46715;40.642;-7.920;2023-03-01T06:39:07;7.35;;;3.40;;
60873;SDS011;46715;40.642;-7.920;2023-03-01T06:41:08;12.10;;;3.13;;
60873;SDS011;46715;40.642;-7.920;2023-03-01T06:43:09;6.25;;;3.10;;
60873;SDS011;46715;40.642;-7.920;2023-03-01T06:45:10;6.10;;;3.13;;
60873;SDS011;46715;40.642;-7.920;2023-03-01T06:47:11;5.85;;;3.15;;
60873;SDS011;46715;40.642;-7.920;2023-03-01T06:49:12;7.05;;;3.53;;
60873;SDS011;46715;40.642;-7.920;2023-03-01T06:51:13;3.85;;;3.20;;
60873;SDS011;46715;40.642;-7.920;2023-03-01T06:53:13;6.60;;;3.30;;
60873;SDS011;46715;40.642;-7.920;2023-03-01T06:55:14;4.65;;;3.10;;
60873;SDS011;46715;40.642;-7.920;2023-03-01T06:57:15;4.57;;;3.72;;
60873;SDS011;46715;40.642;-7.920;2023-03-01T06:59:16;5.78;;;3.42;;
60873;SDS011;46715;40.642;-7.920;2023-03-01T07:01:19;7.57;;;3.60;;
60873;SDS011;46715;40.642;-7.920;2023-03-01T07:03:19;6.35;;;3.38;;
60873;SDS011;46715;40.642;-7.920;2023-03-01T07:05:21;5.95;;;3.47;;
60873;SDS011;46715;40.642;-7.920;2023-03-01T07:07:22;6.80;;;3.63;;
60873;SDS011;46715;40.642;-7.920;2023-03-01T07:09:23;4.25;;;3.05;;
60873;SDS011;46715;40.642;-7.920;2023-03-01T07:11:24;5.28;;;3.20;;
60873;SDS011;46715;40.642;-7.920;2023-03-01T07:13:25;13.33;;;3.87;;
60873;SDS011;46715;40.642;-7.920;2023-03-01T07:15:26;6.22;;;3.72;;
60873;SDS011;46715;40.642;-7.920;2023-03-01T07:17:27;4.30;;;3.17;;
60873;SDS011;46715;40.642;-7.920;2023-03-01T07:19:28;6.25;;;3.85;;
60873;SDS011;46715;40.642;-7.920;2023-03-01T07:21:30;9.93;;;3.50;;
60873;SDS011;46715;40.642;-7.920;2023-03-01T07:23:30;6.07;;;3.77;;
60873;SDS011;46715;40.642;-7.920;2023-03-01T07:25:32;5.63;;;3.50;;
60873;SDS011;46715;40.642;-7.920;2023-03-01T07:27:33;6.27;;;3.93;;
60873;SDS011;46715;40.642;-7.920;2023-03-01T07:29:33;7.90;;;3.10;;
60873;SDS011;46715;40.642;-7.920;2023-03-01T07:31:36;8.45;;;3.13;;
60873;SDS011;46715;40.642;-7.920;2023-03-01T07:33:37;5.40;;;3.20;;
60873;SDS011;46715;40.642;-7.920;2023-03-01T07:35:38;5.18;;;3.20;;
60873;SDS011;46715;40.642;-7.920;2023-03-01T07:37:39;4.78;;;3.15;;
60873;SDS011;46715;40.642;-7.920;2023-03-01T07:39:40;4.72;;;3.28;;
60873;SDS011;46715;40.642;-7.920;2023-03-01T07:41:41;9.20;;;4.23;;
60873;SDS011;46715;40.642;-7.920;2023-03-01T07:43:41;8.40;;;3.83;;
60873;SDS011;46715;40.642;-7.920;2023-03-01T07:45:43;5.43;;;3.40;;
60873;SDS011;46715;40.642;-7.920;2023-03-01T07:47:44;10.13;;;3.97;;
60873;SDS011;46715;40.642;-7.920;2023-03-01T07:49:44;7.85;;;3.88;;
60873;SDS011;46715;40.642;-7.920;2023-03-01T07:51:45;5.28;;;3.88;;
60873;SDS011;46715;40.642;-7.920;2023-03-01T07:53:47;8.02;;;3.67;;
60873;SDS011;46715;40.642;-7.920;2023-03-01T07:55:48;6.60;;;3.60;;
60873;SDS011;46715;40.642;-7.920;2023-03-01T07:57:49;7.57;;;3.47;;
60873;SDS011;46715;40.642;-7.920;2023-03-01T07:59:49;7.57;;;3.90;;
60873;SDS011;46715;40.642;-7.920;2023-03-01T08:01:50;7.47;;;4.37;;
60873;SDS011;46715;40.642;-7.920;2023-03-01T08:03:51;7.57;;;5.37;;
60873;SDS011;46715;40.642;-7.920;2023-03-01T08:05:53;10.23;;;6.68;;
60873;SDS011;46715;40.642;-7.920;2023-03-01T08:07:53;12.47;;;7.20;;
60873;SDS011;46715;40.642;-7.920;2023-03-01T08:09:55;15.25;;;7.15;;
60873;SDS011;46715;40.642;-7.920;2023-03-01T08:11:57;7.43;;;5.03;;
60873;SDS011;46715;40.642;-7.920;2023-03-01T08:14:01;6.60;;;4.32;;
60873;SDS011;46715;40.642;-7.920;2023-03-01T08:16:05;8.63;;;5.27;;
60873;SDS011;46715;40.642;-7.920;2023-03-01T08:18:08;8.65;;;4.80;;
60873;SDS011;46715;40.642;-7.920;2023-03-01T08:20:09;9.63;;;5.43;;
60873;SDS011;46715;40.642;-7.920;2023-03-01T08:22:16;14.55;;;5.97;;
60873;SDS011;46715;40.642;-7.920;2023-03-01T08:24:17;10.20;;;5.63;;
60873;SDS011;46715;40.642;-7.920;2023-03-01T08:26:19;13.70;;;5.40;;
60873;SDS011;46715;40.642;-7.920;2023-03-01T08:28:21;13.23;;;5.60;;
60873;SDS011;46715;40.642;-7.920;2023-03-01T08:30:22;15.53;;;6.63;;
60873;SDS011;46715;40.642;-7.920;2023-03-01T08:32:24;14.38;;;6.25;;
60873;SDS011;46715;40.642;-7.920;2023-03-01T08:34:25;10.93;;;5.87;;
60873;SDS011;46715;40.642;-7.920;2023-03-01T08:36:27;12.43;;;6.25;;
60873;SDS011;46715;40.642;-7.920;2023-03-01T08:38:35;12.30;;;5.50;;
60873;SDS011;46715;40.642;-7.920;2023-03-01T08:40:36;8.55;;;5.07;;
60873;SDS011;46715;40.642;-7.920;2023-03-01T08:42:37;8.03;;;4.87;;
60873;SDS011;46715;40.642;-7.920;2023-03-01T08:44:38;7.97;;;3.50;;
60873;SDS011;46715;40.642;-7.920;2023-03-01T08:46:40;5.78;;;3.60;;
60873;SDS011;46715;40.642;-7.920;2023-03-01T08:48:41;6.20;;;3.70;;
60873;SDS011;46715;40.642;-7.920;2023-03-01T08:50:44;8.85;;;4.53;;
60873;SDS011;46715;40.642;-7.920;2023-03-01T08:52:44;8.63;;;3.83;;
60873;SDS011;46715;40.642;-7.920;2023-03-01T08:54:47;5.03;;;2.72;;
60873;SDS011;46715;40.642;-7.920;2023-03-01T08:56:49;8.82;;;4.35;;
60873;SDS011;46715;40.642;-7.920;2023-03-01T08:58:51;9.57;;;5.07;;
60873;SDS011;46715;40.642;-7.920;2023-03-01T09:00:51;7.13;;;3.50;;
60873;SDS011;46715;40.642;-7.920;2023-03-01T09:02:53;10.70;;;4.90;;
60873;SDS011;46715;40.642;-7.920;2023-03-01T09:04:54;5.88;;;2.88;;
60873;SDS011;46715;40.642;-7.920;2023-03-01T09:06:55;7.83;;;2.80;;
60873;SDS011;46715;40.642;-7.920;2023-03-01T09:08:55;6.10;;;2.53;;
60873;SDS011;46715;40.642;-7.920;2023-03-01T09:10:56;7.20;;;3.17;;
60873;SDS011;46715;40.642;-7.920;2023-03-01T09:12:57;7.47;;;2.40;;
60873;SDS011;46715;40.642;-7.920;2023-03-01T09:16:59;4.88;;;2.33;;
60873;SDS011;46715;40.642;-7.920;2023-03-01T09:19:03;4.07;;;2.13;;
60873;SDS011;46715;40.642;-7.920;2023-03-01T09:21:05;5.90;;;2.50;;
60873;SDS011;46715;40.642;-7.920;2023-03-01T09:23:08;6.03;;;2.95;;
60873;SDS011;46715;40.642;-7.920;2023-03-01T09:25:09;7.23;;;2.80;;
60873;SDS011;46715;40.642;-7.920;2023-03-01T09:27:10;6.32;;;2.55;;
60873;SDS011;46715;40.642;-7.920;2023-03-01T09:29:13;3.63;;;2.03;;
60873;SDS011;46715;40.642;-7.920;2023-03-01T09:33:15;4.80;;;2.55;;
60873;SDS011;46715;40.642;-7.920;2023-03-01T09:35:16;4.07;;;2.20;;
60873;SDS011;46715;40.642;-7.920;2023-03-01T09:37:18;3.80;;;2.20;;
60873;SDS011;46715;40.642;-7.920;2023-03-01T09:39:19;7.00;;;2.58;;
60873;SDS011;46715;40.642;-7.920;2023-03-01T09:41:34;4.70;;;2.85;;
60873;SDS011;46715;40.642;-7.920;2023-03-01T09:43:52;4.10;;;2.45;;
60873;SDS011;46715;40.642;-7.920;2023-03-01T09:46:00;5.32;;;2.80;;
60873;SDS011;46715;40.642;-7.920;2023-03-01T09:48:06;3.60;;;2.42;;
60873;SDS011;46715;40.642;-7.920;2023-03-01T09:50:17;5.55;;;3.03;;
60873;SDS011;46715;40.642;-7.920;2023-03-01T09:54:42;5.93;;;3.33;;
60873;SDS011;46715;40.642;-7.920;2023-03-01T09:59:29;5.05;;;2.83;;
60873;SDS011;46715;40.642;-7.920;2023-03-01T10:01:44;4.57;;;3.22;;
60873;SDS011;46715;40.642;-7.920;2023-03-01T10:06:28;3.35;;;2.35;;
60873;SDS011;46715;40.642;-7.920;2023-03-01T10:10:38;5.53;;;2.40;;
60873;SDS011;46715;40.642;-7.920;2023-03-01T10:12:40;6.68;;;2.28;;
60873;SDS011;46715;40.642;-7.920;2023-03-01T10:14:48;4.25;;;2.58;;
60873;SDS011;46715;40.642;-7.920;2023-03-01T10:16:57;6.55;;;2.55;;
60873;SDS011;46715;40.642;-7.920;2023-03-01T10:19:03;5.00;;;2.58;;
60873;SDS011;46715;40.642;-7.920;2023-03-01T10:21:14;4.05;;;2.60;;
60873;SDS011;46715;40.642;-7.920;2023-03-01T10:23:17;4.47;;;2.95;;
60873;SDS011;46715;40.642;-7.920;2023-03-01T10:25:31;3.37;;;2.57;;
60873;SDS011;46715;40.642;-7.920;2023-03-01T10:28:02;4.07;;;2.70;;
60873;SDS011;46715;40.642;-7.920;2023-03-01T10:30:19;5.63;;;2.90;;
60873;SDS011;46715;40.642;-7.920;2023-03-01T10:32:43;5.45;;;3.58;;
60873;SDS011;46715;40.642;-7.920;2023-03-01T10:34:44;4.75;;;2.80;;
60873;SDS011;46715;40.642;-7.920;2023-03-01T10:36:49;6.27;;;3.43;;
60873;SDS011;46715;40.642;-7.920;2023-03-01T10:38:56;5.13;;;3.25;;
60873;SDS011;46715;40.642;-7.920;2023-03-01T10:40:59;4.88;;;3.15;;
60873;SDS011;46715;40.642;-7.920;2023-03-01T10:43:10;4.32;;;2.55;;
60873;SDS011;46715;40.642;-7.920;2023-03-01T10:45:16;4.47;;;2.53;;
60873;SDS011;46715;40.642;-7.920;2023-03-01T10:47:29;4.60;;;3.20;;
60873;SDS011;46715;40.642;-7.920;2023-03-01T10:49:30;4.23;;;2.67;;
60873;SDS011;46715;40.642;-7.920;2023-03-01T10:51:31;5.28;;;2.40;;
60873;SDS011;46715;40.642;-7.920;2023-03-01T10:53:36;3.60;;;2.50;;
60873;SDS011;46715;40.642;-7.920;2023-03-01T10:55:40;5.93;;;3.60;;
60873;SDS011;46715;40.642;-7.920;2023-03-01T10:57:41;8.70;;;3.27;;
60873;SDS011;46715;40.642;-7.920;2023-03-01T10:59:42;6.22;;;2.92;;
60873;SDS011;46715;40.642;-7.920;2023-03-01T11:01:43;4.67;;;3.20;;
60873;SDS011;46715;40.642;-7.920;2023-03-01T11:03:44;4.10;;;3.00;;
60873;SDS011;46715;40.642;-7.920;2023-03-01T11:07:55;9.10;;;3.35;;
60873;SDS011;46715;40.642;-7.920;2023-03-01T11:10:06;5.90;;;3.13;;
60873;SDS011;46715;40.642;-7.920;2023-03-01T11:12:18;4.13;;;2.70;;
60873;SDS011;46715;40.642;-7.920;2023-03-01T11:14:31;5.95;;;3.20;;
60873;SDS011;46715;40.642;-7.920;2023-03-01T11:16:37;11.15;;;5.88;;
60873;SDS011;46715;40.642;-7.920;2023-03-01T11:18:41;4.90;;;3.45;;
60873;SDS011;46715;40.642;-7.920;2023-03-01T11:20:42;4.33;;;2.60;;
60873;SDS011;46715;40.642;-7.920;2023-03-01T11:22:47;6.17;;;3.67;;
60873;SDS011;46715;40.642;-7.920;2023-03-01T11:24:53;4.85;;;3.05;;
60873;SDS011;46715;40.642;-7.920;2023-03-01T11:26:56;7.85;;;4.60;;
60873;SDS011;46715;40.642;-7.920;2023-03-01T11:29:00;4.38;;;2.92;;
60873;SDS011;46715;40.642;-7.920;2023-03-01T11:31:07;5.97;;;3.13;;
60873;SDS011;46715;40.642;-7.920;2023-03-01T11:35:21;3.92;;;2.50;;
60873;SDS011;46715;40.642;-7.920;2023-03-01T11:42:02;5.40;;;3.15;;
60873;SDS011;46715;40.642;-7.920;2023-03-01T11:44:45;4.57;;;2.95;;
60873;SDS011;46715;40.642;-7.920;2023-03-01T11:49:36;4.35;;;3.10;;
60873;SDS011;46715;40.642;-7.920;2023-03-01T11:56:37;5.57;;;2.83;;
60873;SDS011;46715;40.642;-7.920;2023-03-01T11:58:52;3.22;;;2.22;;
60873;SDS011;46715;40.642;-7.920;2023-03-01T12:08:43;4.28;;;2.65;;
60873;SDS011;46715;40.642;-7.920;2023-03-01T12:15:20;5.03;;;2.75;;
60873;SDS011;46715;40.642;-7.920;2023-03-01T12:20:09;4.25;;;2.47;;
60873;SDS011;46715;40.642;-7.920;2023-03-01T12:24:28;4.80;;;2.58;;
60873;SDS011;46715;40.642;-7.920;2023-03-01T12:26:54;5.50;;;2.65;;
60873;SDS011;46715;40.642;-7.920;2023-03-01T12:29:07;4.63;;;2.58;;
60873;SDS011;46715;40.642;-7.920;2023-03-01T12:38:32;4.72;;;2.95;;
60873;SDS011;46715;40.642;-7.920;2023-03-01T12:40:51;6.78;;;3.03;;
60873;SDS011;46715;40.642;-7.920;2023-03-01T12:50:48;4.93;;;2.53;;
60873;SDS011;46715;40.642;-7.920;2023-03-01T12:52:53;4.95;;;2.63;;
60873;SDS011;46715;40.642;-7.920;2023-03-01T12:54:56;4.57;;;2.80;;
60873;SDS011;46715;40.642;-7.920;2023-03-01T12:59:39;7.68;;;2.88;;
60873;SDS011;46715;40.642;-7.920;2023-03-01T13:01:49;5.60;;;3.05;;
60873;SDS011;46715;40.642;-7.920;2023-03-01T13:04:07;4.70;;;2.38;;
60873;SDS011;46715;40.642;-7.920;2023-03-01T13:06:19;3.72;;;2.33;;
60873;SDS011;46715;40.642;-7.920;2023-03-01T13:08:58;4.75;;;2.15;;
60873;SDS011;46715;40.642;-7.920;2023-03-01T13:11:20;5.50;;;2.33;;
60873;SDS011;46715;40.642;-7.920;2023-03-01T13:13:23;4.45;;;2.22;;
60873;SDS011;46715;40.642;-7.920;2023-03-01T13:15:26;6.15;;;2.75;;
60873;SDS011;46715;40.642;-7.920;2023-03-01T13:17:32;6.35;;;2.90;;
60873;SDS011;46715;40.642;-7.920;2023-03-01T13:19:41;6.43;;;2.65;;
60873;SDS011;46715;40.642;-7.920;2023-03-01T13:21:57;5.07;;;3.15;;
60873;SDS011;46715;40.642;-7.920;2023-03-01T13:23:58;5.25;;;2.70;;
60873;SDS011;46715;40.642;-7.920;2023-03-01T13:30:41;4.85;;;2.92;;
60873;SDS011;46715;40.642;-7.920;2023-03-01T13:32:42;5.28;;;2.78;;
60873;SDS011;46715;40.642;-7.920;2023-03-01T13:34:44;4.27;;;2.40;;
60873;SDS011;46715;40.642;-7.920;2023-03-01T13:36:47;6.13;;;3.22;;
60873;SDS011;46715;40.642;-7.920;2023-03-01T13:38:56;4.60;;;2.70;;
60873;SDS011;46715;40.642;-7.920;2023-03-01T13:40:59;6.00;;;2.65;;
60873;SDS011;46715;40.642;-7.920;2023-03-01T13:43:23;5.80;;;2.80;;
60873;SDS011;46715;40.642;-7.920;2023-03-01T13:45:39;5.28;;;2.92;;
60873;SDS011;46715;40.642;-7.920;2023-03-01T13:47:44;5.32;;;2.70;;